Time,TemperatureF,DewpointF,PressureIn,WindDirection,WindDirectionDegrees,WindSpeedMPH,WindSpeedGustMPH,Humidity,HourlyPrecipIn,Conditions,Clouds,dailyrainin,SoftwareType,DateUTC
2013-03-14 00:00:00,30.7,28.9,30.05,NE,53,0.0,2.0,93,0.00,FEW,,0.00,WeatherDisplay:10.37,2013-03-14 00:00:00,
2013-03-14 00:30:00,30.6,28.8,30.05,SSE,148,0.0,2.0,93,0.00,CLR,,0.00,WeatherDisplay:10.37,2013-03-14 00:30:00,
2013-03-14 01:00:00,29.4,27.4,30.06,South,169,0.0,1.0,92,0.00,CLR,,0.00,WeatherDisplay:10.37,2013-03-14 01:00:00,
2013-03-14 01:30:00,29.9,28.1,30.06,SSE,168,0.0,1.0,93,0.00,CLR,,0.00,WeatherDisplay:10.37,2013-03-14 01:30:00,
2013-03-14 02:00:00,29.9,28.1,30.06,SSE,163,0.0,2.0,93,0.00,CLR,,0.00,WeatherDisplay:10.37,2013-03-14 02:00:00,
2013-03-14 02:30:00,29.4,27.4,30.06,SSW,206,0.0,2.0,92,0.00,CLR,,0.00,WeatherDisplay:10.37,2013-03-14 02:30:00,
2013-03-14 03:00:00,28.9,26.9,30.06,SSE,162,0.0,2.0,92,0.00,CLR,,0.00,WeatherDisplay:10.37,2013-03-14 03:00:00,
2013-03-14 03:30:00,29.0,27.3,30.05,SSE,162,0.0,1.0,93,0.00,CLR,,0.00,WeatherDisplay:10.37,2013-03-14 03:30:00,
2013-03-14 04:30:00,28.9,27.1,30.04,SE,136,0.0,2.0,93,0.00,CLR,,0.00,WeatherDisplay:10.37,2013-03-14 04:30:00,
2013-03-14 05:00:00,29.2,27.2,30.04,SE,138,0.0,2.0,92,0.00,CLR,,0.00,WeatherDisplay:10.37,2013-03-14 05:00:00,
2013-03-14 05:30:00,29.3,27.3,30.04,SE,146,0.0,2.0,92,0.00,CLR,,0.00,WeatherDisplay:10.37,2013-03-14 05:30:00,
2013-03-14 06:00:00,29.0,27.2,30.04,SE,146,0.0,2.0,93,0.00,CLR,,0.00,WeatherDisplay:10.37,2013-03-14 06:00:00,
2013-03-14 06:30:00,29.2,27.4,30.04,South,178,1.0,4.0,93,0.00,CLR,,0.00,WeatherDisplay:10.37,2013-03-14 06:30:00,
2013-03-14 07:00:00,29.8,28.1,30.04,SSW,213,0.0,5.0,93,0.00,SCT,,0.00,WeatherDisplay:10.37,2013-03-14 07:00:00,
2013-03-14 07:30:00,30.8,29.3,30.04,South,190,1.0,5.0,94,0.00,SCT,,0.00,WeatherDisplay:10.37,2013-03-14 07:30:00,
2013-03-14 08:00:00,32.6,31.0,30.04,SSW,193,1.0,7.0,94,0.00,SCT,,0.00,WeatherDisplay:10.37,2013-03-14 08:00:00,
2013-03-14 08:30:00,33.8,32.2,30.03,SSW,207,3.0,8.0,94,0.00,SCT,,0.00,WeatherDisplay:10.37,2013-03-14 08:30:00,
2013-03-14 09:00:00,35.5,34.0,30.03,SW,219,5.0,7.0,94,0.00,SCT,,0.00,WeatherDisplay:10.37,2013-03-14 09:00:00,
2013-03-14 09:30:00,37.6,35.2,30.02,SW,226,5.0,9.0,91,0.00,BKN,,0.00,WeatherDisplay:10.37,2013-03-14 09:30:00,
2013-03-14 10:00:00,39.0,36.0,30.02,SW,221,5.0,9.0,89,0.00,BKN,,0.00,WeatherDisplay:10.37,2013-03-14 10:00:00,
2013-03-14 10:30:00,40.4,36.9,30.01,SSW,207,3.0,11.0,87,0.00,BKN,,0.00,WeatherDisplay:10.37,2013-03-14 10:30:00,
2013-03-14 11:00:00,43.2,38.4,30.00,WSW,237,6.0,12.0,83,0.00,BKN,,0.00,WeatherDisplay:10.37,2013-03-14 11:00:00,
2013-03-14 11:30:00,44.7,39.2,29.98,WSW,243,5.0,12.0,81,0.00,BKN,,0.00,WeatherDisplay:10.37,2013-03-14 11:30:00,
2013-03-14 12:00:00,45.0,39.5,29.97,WSW,239,8.0,12.0,81,0.00,BKN,,0.00,WeatherDisplay:10.37,2013-03-14 12:00:00,
2013-03-14 12:30:00,44.9,39.4,29.96,WSW,239,7.0,12.0,81,0.00,BKN,,0.00,WeatherDisplay:10.37,2013-03-14 12:30:00,
2013-03-14 13:00:00,45.3,40.1,29.94,WSW,244,8.0,13.0,82,0.00,BKN,,0.00,WeatherDisplay:10.37,2013-03-14 13:00:00,
2013-03-14 13:30:00,47.6,41.7,29.93,West,259,7.0,15.0,80,0.00,BKN,,0.00,WeatherDisplay:10.37,2013-03-14 13:30:00,
2013-03-14 14:00:00,46.0,42.3,29.92,West,277,6.0,15.0,87,0.00,BKN,,0.00,WeatherDisplay:10.37,2013-03-14 14:00:00,
2013-03-14 14:30:00,47.9,41.7,29.90,West,263,8.0,12.0,79,0.00,BKN,,0.00,WeatherDisplay:10.37,2013-03-14 14:30:00,
2013-03-14 15:00:00,47.6,41.0,29.89,West,270,9.0,16.0,78,0.00,BKN,,0.00,WeatherDisplay:10.37,2013-03-14 15:00:00,
2013-03-14 15:30:00,44.3,40.1,29.89,WNW,290,6.0,17.0,85,0.04,RA,,0.04,WeatherDisplay:10.37,2013-03-14 15:30:00,
2013-03-14 16:00:00,42.7,40.0,29.89,WNW,301,5.0,14.0,90,0.02,BKN,,0.06,WeatherDisplay:10.37,2013-03-14 16:00:00,
2013-03-14 17:30:00,43.1,40.3,29.86,SW,221,2.0,6.0,90,0.00,BKN,,0.06,WeatherDisplay:10.37,2013-03-14 17:30:00,
2013-03-14 18:00:00,42.5,39.8,29.85,SW,224,3.0,9.0,90,0.00,BKN,,0.06,WeatherDisplay:10.37,2013-03-14 18:00:00,
2013-03-14 19:00:00,42.2,38.6,29.84,WSW,245,5.0,9.0,87,0.00,BKN,,0.06,WeatherDisplay:10.37,2013-03-14 19:00:00,
2013-03-14 19:30:00,41.6,38.3,29.83,SW,222,5.0,8.0,88,0.00,BKN,,0.06,WeatherDisplay:10.37,2013-03-14 19:30:00,
2013-03-14 20:00:00,41.0,37.7,29.83,SW,226,3.0,8.0,88,0.00,BKN,,0.06,WeatherDisplay:10.37,2013-03-14 20:00:00,
2013-03-14 20:30:00,40.9,38.0,29.81,SSW,208,5.0,9.0,89,0.00,BKN,,0.06,WeatherDisplay:10.37,2013-03-14 20:30:00,
2013-03-14 21:00:00,40.4,37.7,29.80,SSW,203,6.0,12.0,90,0.00,BKN,,0.06,WeatherDisplay:10.37,2013-03-14 21:00:00,
2013-03-14 21:30:00,40.6,37.9,29.78,South,185,5.0,10.0,90,0.00,BKN,,0.06,WeatherDisplay:10.37,2013-03-14 21:30:00,
2013-03-14 22:00:00,40.4,37.7,29.76,SSW,201,3.0,12.0,90,0.00,BKN,,0.06,WeatherDisplay:10.37,2013-03-14 22:00:00,
2013-03-14 22:30:00,40.5,37.8,29.75,SW,219,5.0,12.0,90,0.00,BKN,,0.06,WeatherDisplay:10.37,2013-03-14 22:30:00,
2013-03-14 23:00:00,40.8,38.0,29.74,SSW,210,5.0,12.0,90,0.00,BKN,,0.06,WeatherDisplay:10.37,2013-03-14 23:00:00,
2013-03-14 23:30:00,40.5,38.1,29.72,SSW,212,6.0,15.0,91,0.00,BKN,,0.06,WeatherDisplay:10.37,2013-03-14 23:30:00,